sensor_id;sensor_type;location;lat;lon;timestamp;P1;durP1;ratioP1;P2;durP2;ratioP2
14876;SDS011;69691;48.172;17.070;2023-07-13T00:01:52;8.10;;;5.88;;
14876;SDS011;69691;48.172;17.070;2023-07-13T00:04:19;8.20;;;6.13;;
14876;SDS011;69691;48.172;17.070;2023-07-13T00:06:48;11.45;;;5.97;;
14876;SDS011;69691;48.172;17.070;2023-07-13T00:09:16;8.43;;;6.35;;
14876;SDS011;69691;48.172;17.070;2023-07-13T00:11:43;6.90;;;5.95;;
14876;SDS011;69691;48.172;17.070;2023-07-13T00:14:12;9.20;;;6.00;;
14876;SDS011;69691;48.172;17.070;2023-07-13T00:16:41;6.15;;;5.55;;
14876;SDS011;69691;48.172;17.070;2023-07-13T00:19:09;8.23;;;6.30;;
14876;SDS011;69691;48.172;17.070;2023-07-13T00:21:40;9.90;;;6.40;;
14876;SDS011;69691;48.172;17.070;2023-07-13T00:24:07;12.75;;;6.25;;
14876;SDS011;69691;48.172;17.070;2023-07-13T00:26:38;13.75;;;6.68;;
14876;SDS011;69691;48.172;17.070;2023-07-13T00:29:04;11.95;;;6.38;;
14876;SDS011;69691;48.172;17.070;2023-07-13T00:31:33;10.45;;;5.70;;
14876;SDS011;69691;48.172;17.070;2023-07-13T00:34:00;7.95;;;6.40;;
14876;SDS011;69691;48.172;17.070;2023-07-13T00:36:26;11.05;;;6.25;;
14876;SDS011;69691;48.172;17.070;2023-07-13T00:38:52;7.28;;;6.32;;
14876;SDS011;69691;48.172;17.070;2023-07-13T00:41:18;6.50;;;5.78;;
14876;SDS011;69691;48.172;17.070;2023-07-13T00:43:44;7.68;;;5.93;;
14876;SDS011;69691;48.172;17.070;2023-07-13T00:48:42;7.05;;;5.55;;
14876;SDS011;69691;48.172;17.070;2023-07-13T00:51:10;7.57;;;6.20;;
14876;SDS011;69691;48.172;17.070;2023-07-13T00:53:39;10.30;;;6.30;;
14876;SDS011;69691;48.172;17.070;2023-07-13T00:56:06;8.23;;;6.50;;
14876;SDS011;69691;48.172;17.070;2023-07-13T00:58:32;14.30;;;7.13;;
14876;SDS011;69691;48.172;17.070;2023-07-13T01:01:00;9.38;;;6.88;;
14876;SDS011;69691;48.172;17.070;2023-07-13T01:03:26;10.95;;;7.10;;
14876;SDS011;69691;48.172;17.070;2023-07-13T01:05:53;8.43;;;6.60;;
14876;SDS011;69691;48.172;17.070;2023-07-13T01:08:19;10.20;;;7.00;;
14876;SDS011;69691;48.172;17.070;2023-07-13T01:10:56;10.98;;;7.05;;
14876;SDS011;69691;48.172;17.070;2023-07-13T01:13:23;9.88;;;6.60;;
14876;SDS011;69691;48.172;17.070;2023-07-13T01:15:50;16.63;;;6.38;;
14876;SDS011;69691;48.172;17.070;2023-07-13T01:18:19;14.43;;;7.30;;
14876;SDS011;69691;48.172;17.070;2023-07-13T01:20:53;14.32;;;7.50;;
14876;SDS011;69691;48.172;17.070;2023-07-13T01:23:20;6.97;;;6.20;;
14876;SDS011;69691;48.172;17.070;2023-07-13T01:25:48;11.65;;;7.40;;
14876;SDS011;69691;48.172;17.070;2023-07-13T01:28:14;9.75;;;7.00;;
14876;SDS011;69691;48.172;17.070;2023-07-13T01:30:41;11.18;;;6.65;;
14876;SDS011;69691;48.172;17.070;2023-07-13T01:33:11;12.35;;;7.07;;
14876;SDS011;69691;48.172;17.070;2023-07-13T01:35:41;10.80;;;7.25;;
14876;SDS011;69691;48.172;17.070;2023-07-13T01:38:09;11.70;;;6.10;;
14876;SDS011;69691;48.172;17.070;2023-07-13T01:40:36;9.13;;;6.50;;
14876;SDS011;69691;48.172;17.070;2023-07-13T01:43:03;9.73;;;6.50;;
14876;SDS011;69691;48.172;17.070;2023-07-13T01:45:30;9.77;;;7.03;;
14876;SDS011;69691;48.172;17.070;2023-07-13T01:47:56;7.85;;;6.50;;
14876;SDS011;69691;48.172;17.070;2023-07-13T01:50:23;9.48;;;6.05;;
14876;SDS011;69691;48.172;17.070;2023-07-13T01:52:51;6.82;;;6.15;;
14876;SDS011;69691;48.172;17.070;2023-07-13T01:55:17;9.57;;;6.13;;
14876;SDS011;69691;48.172;17.070;2023-07-13T01:57:43;7.15;;;5.88;;
14876;SDS011;69691;48.172;17.070;2023-07-13T02:00:09;13.02;;;6.45;;
14876;SDS011;69691;48.172;17.070;2023-07-13T02:02:42;8.10;;;5.05;;
14876;SDS011;69691;48.172;17.070;2023-07-13T02:05:10;7.47;;;5.35;;
14876;SDS011;69691;48.172;17.070;2023-07-13T02:07:36;8.30;;;5.60;;
14876;SDS011;69691;48.172;17.070;2023-07-13T02:10:03;8.13;;;5.22;;
14876;SDS011;69691;48.172;17.070;2023-07-13T02:12:31;7.80;;;5.22;;
14876;SDS011;69691;48.172;17.070;2023-07-13T02:14:57;7.78;;;5.03;;
14876;SDS011;69691;48.172;17.070;2023-07-13T02:17:22;11.18;;;5.97;;
14876;SDS011;69691;48.172;17.070;2023-07-13T02:19:48;6.80;;;5.15;;
14876;SDS011;69691;48.172;17.070;2023-07-13T02:22:14;7.85;;;5.57;;
14876;SDS011;69691;48.172;17.070;2023-07-13T02:24:40;7.35;;;5.53;;
14876;SDS011;69691;48.172;17.070;2023-07-13T02:27:06;7.22;;;5.30;;
14876;SDS011;69691;48.172;17.070;2023-07-13T02:29:32;12.10;;;5.70;;
14876;SDS011;69691;48.172;17.070;2023-07-13T02:31:58;6.93;;;5.93;;
14876;SDS011;69691;48.172;17.070;2023-07-13T02:34:23;7.75;;;5.65;;
14876;SDS011;69691;48.172;17.070;2023-07-13T02:36:49;10.95;;;5.93;;
14876;SDS011;69691;48.172;17.070;2023-07-13T02:39:15;6.32;;;5.18;;
14876;SDS011;69691;48.172;17.070;2023-07-13T02:41:41;9.32;;;5.47;;
14876;SDS011;69691;48.172;17.070;2023-07-13T02:44:07;7.50;;;5.10;;
14876;SDS011;69691;48.172;17.070;2023-07-13T02:46:34;6.55;;;5.25;;
14876;SDS011;69691;48.172;17.070;2023-07-13T02:49:02;9.13;;;5.70;;
14876;SDS011;69691;48.172;17.070;2023-07-13T02:51:28;9.52;;;5.35;;
14876;SDS011;69691;48.172;17.070;2023-07-13T02:53:55;9.60;;;5.45;;
14876;SDS011;69691;48.172;17.070;2023-07-13T02:56:22;10.60;;;5.53;;
14876;SDS011;69691;48.172;17.070;2023-07-13T02:58:50;8.32;;;5.32;;
14876;SDS011;69691;48.172;17.070;2023-07-13T03:01:16;5.90;;;4.70;;
14876;SDS011;69691;48.172;17.070;2023-07-13T03:03:45;6.82;;;5.03;;
14876;SDS011;69691;48.172;17.070;2023-07-13T03:06:12;6.43;;;4.63;;
14876;SDS011;69691;48.172;17.070;2023-07-13T03:08:46;7.53;;;5.40;;
14876;SDS011;69691;48.172;17.070;2023-07-13T03:11:16;7.13;;;4.90;;
14876;SDS011;69691;48.172;17.070;2023-07-13T03:13:47;7.90;;;4.75;;
14876;SDS011;69691;48.172;17.070;2023-07-13T03:16:14;7.85;;;5.05;;
14876;SDS011;69691;48.172;17.070;2023-07-13T03:18:43;5.80;;;4.45;;
14876;SDS011;69691;48.172;17.070;2023-07-13T03:21:10;5.10;;;4.60;;
14876;SDS011;69691;48.172;17.070;2023-07-13T03:23:38;8.73;;;5.32;;
14876;SDS011;69691;48.172;17.070;2023-07-13T03:26:05;8.68;;;5.05;;
14876;SDS011;69691;48.172;17.070;2023-07-13T03:28:39;6.82;;;4.65;;
14876;SDS011;69691;48.172;17.070;2023-07-13T03:31:10;11.75;;;5.03;;
14876;SDS011;69691;48.172;17.070;2023-07-13T03:33:42;8.50;;;5.45;;
14876;SDS011;69691;48.172;17.070;2023-07-13T03:36:11;7.32;;;4.57;;
14876;SDS011;69691;48.172;17.070;2023-07-13T03:38:48;9.30;;;5.72;;
14876;SDS011;69691;48.172;17.070;2023-07-13T03:41:30;13.90;;;5.95;;
14876;SDS011;69691;48.172;17.070;2023-07-13T03:43:57;11.43;;;5.93;;
14876;SDS011;69691;48.172;17.070;2023-07-13T03:46:24;12.52;;;6.20;;
14876;SDS011;69691;48.172;17.070;2023-07-13T03:48:50;13.32;;;6.07;;
14876;SDS011;69691;48.172;17.070;2023-07-13T03:51:16;14.55;;;6.25;;
14876;SDS011;69691;48.172;17.070;2023-07-13T03:53:43;17.58;;;6.95;;
14876;SDS011;69691;48.172;17.070;2023-07-13T03:56:13;13.65;;;6.97;;
14876;SDS011;69691;48.172;17.070;2023-07-13T03:58:41;16.67;;;7.47;;
14876;SDS011;69691;48.172;17.070;2023-07-13T04:01:14;14.85;;;6.85;;
14876;SDS011;69691;48.172;17.070;2023-07-13T04:03:43;15.68;;;7.60;;
14876;SDS011;69691;48.172;17.070;2023-07-13T04:06:19;11.70;;;6.43;;
14876;SDS011;69691;48.172;17.070;2023-07-13T04:08:51;16.95;;;6.75;;
14876;SDS011;69691;48.172;17.070;2023-07-13T04:11:20;19.30;;;7.27;;
14876;SDS011;69691;48.172;17.070;2023-07-13T04:13:47;17.58;;;7.15;;
14876;SDS011;69691;48.172;17.070;2023-07-13T04:16:14;17.13;;;6.65;;
14876;SDS011;69691;48.172;17.070;2023-07-13T04:18:41;20.75;;;8.05;;
14876;SDS011;69691;48.172;17.070;2023-07-13T04:21:07;14.35;;;7.57;;
14876;SDS011;69691;48.172;17.070;2023-07-13T04:23:36;17.85;;;6.88;;
14876;SDS011;69691;48.172;17.070;2023-07-13T04:26:03;19.23;;;7.55;;
14876;SDS011;69691;48.172;17.070;2023-07-13T04:28:30;16.45;;;6.88;;
14876;SDS011;69691;48.172;17.070;2023-07-13T04:30:56;17.45;;;6.68;;
14876;SDS011;69691;48.172;17.070;2023-07-13T04:33:22;9.00;;;6.43;;
14876;SDS011;69691;48.172;17.070;2023-07-13T04:35:52;14.57;;;6.93;;
14876;SDS011;69691;48.172;17.070;2023-07-13T04:38:23;18.25;;;7.40;;
14876;SDS011;69691;48.172;17.070;2023-07-13T04:40:53;13.32;;;8.60;;
14876;SDS011;69691;48.172;17.070;2023-07-13T04:43:21;13.85;;;6.68;;
14876;SDS011;69691;48.172;17.070;2023-07-13T04:45:48;12.48;;;6.80;;
14876;SDS011;69691;48.172;17.070;2023-07-13T04:48:21;14.60;;;7.13;;
14876;SDS011;69691;48.172;17.070;2023-07-13T04:50:53;15.95;;;8.38;;
14876;SDS011;69691;48.172;17.070;2023-07-13T04:53:22;16.33;;;9.90;;
14876;SDS011;69691;48.172;17.070;2023-07-13T04:55:48;19.40;;;9.45;;
14876;SDS011;69691;48.172;17.070;2023-07-13T04:58:14;10.85;;;7.38;;
14876;SDS011;69691;48.172;17.070;2023-07-13T05:00:40;12.88;;;7.95;;
14876;SDS011;69691;48.172;17.070;2023-07-13T05:03:05;13.90;;;7.82;;
14876;SDS011;69691;48.172;17.070;2023-07-13T05:05:31;12.43;;;6.93;;
14876;SDS011;69691;48.172;17.070;2023-07-13T05:07:57;14.95;;;7.53;;
14876;SDS011;69691;48.172;17.070;2023-07-13T05:10:23;7.57;;;6.60;;
14876;SDS011;69691;48.172;17.070;2023-07-13T05:12:49;30.40;;;6.97;;
14876;SDS011;69691;48.172;17.070;2023-07-13T05:15:15;9.95;;;6.57;;
14876;SDS011;69691;48.172;17.070;2023-07-13T05:17:46;19.63;;;6.25;;
14876;SDS011;69691;48.172;17.070;2023-07-13T05:20:13;11.65;;;6.13;;
14876;SDS011;69691;48.172;17.070;2023-07-13T05:22:39;7.20;;;5.13;;
14876;SDS011;69691;48.172;17.070;2023-07-13T05:25:05;9.43;;;4.80;;
14876;SDS011;69691;48.172;17.070;2023-07-13T05:27:33;6.68;;;4.57;;
14876;SDS011;69691;48.172;17.070;2023-07-13T05:30:00;6.57;;;4.30;;
14876;SDS011;69691;48.172;17.070;2023-07-13T05:32:28;4.70;;;4.30;;
14876;SDS011;69691;48.172;17.070;2023-07-13T05:34:54;5.68;;;3.97;;
14876;SDS011;69691;48.172;17.070;2023-07-13T05:37:20;5.60;;;3.80;;
14876;SDS011;69691;48.172;17.070;2023-07-13T05:39:46;5.65;;;3.67;;
14876;SDS011;69691;48.172;17.070;2023-07-13T05:42:12;7.53;;;4.88;;
14876;SDS011;69691;48.172;17.070;2023-07-13T05:44:37;8.60;;;3.38;;
14876;SDS011;69691;48.172;17.070;2023-07-13T05:47:03;6.35;;;3.55;;
14876;SDS011;69691;48.172;17.070;2023-07-13T05:49:30;7.38;;;3.50;;
14876;SDS011;69691;48.172;17.070;2023-07-13T05:51:56;4.80;;;3.78;;
14876;SDS011;69691;48.172;17.070;2023-07-13T05:54:22;10.10;;;3.83;;
14876;SDS011;69691;48.172;17.070;2023-07-13T05:56:48;6.25;;;3.78;;
14876;SDS011;69691;48.172;17.070;2023-07-13T05:59:14;5.22;;;3.88;;
14876;SDS011;69691;48.172;17.070;2023-07-13T06:01:40;5.53;;;4.30;;
14876;SDS011;69691;48.172;17.070;2023-07-13T06:04:06;8.65;;;3.63;;
14876;SDS011;69691;48.172;17.070;2023-07-13T06:06:32;8.93;;;4.03;;
14876;SDS011;69691;48.172;17.070;2023-07-13T06:08:58;10.73;;;4.30;;
14876;SDS011;69691;48.172;17.070;2023-07-13T06:11:24;7.07;;;4.10;;
14876;SDS011;69691;48.172;17.070;2023-07-13T06:13:52;5.75;;;4.22;;
14876;SDS011;69691;48.172;17.070;2023-07-13T06:16:19;5.82;;;3.95;;
14876;SDS011;69691;48.172;17.070;2023-07-13T06:18:45;7.13;;;4.00;;
14876;SDS011;69691;48.172;17.070;2023-07-13T06:21:15;5.80;;;4.25;;
14876;SDS011;69691;48.172;17.070;2023-07-13T06:23:44;5.85;;;4.15;;
14876;SDS011;69691;48.172;17.070;2023-07-13T06:26:12;8.23;;;4.10;;
14876;SDS011;69691;48.172;17.070;2023-07-13T06:28:39;7.28;;;4.50;;
14876;SDS011;69691;48.172;17.070;2023-07-13T06:31:09;6.20;;;4.53;;
14876;SDS011;69691;48.172;17.070;2023-07-13T06:33:36;13.50;;;4.28;;
14876;SDS011;69691;48.172;17.070;2023-07-13T06:36:03;6.90;;;4.50;;
14876;SDS011;69691;48.172;17.070;2023-07-13T06:38:31;8.80;;;3.88;;
14876;SDS011;69691;48.172;17.070;2023-07-13T06:40:57;6.45;;;4.22;;
14876;SDS011;69691;48.172;17.070;2023-07-13T06:43:23;4.93;;;4.40;;
14876;SDS011;69691;48.172;17.070;2023-07-13T06:45:54;6.53;;;3.80;;
14876;SDS011;69691;48.172;17.070;2023-07-13T06:48:21;8.80;;;4.05;;
14876;SDS011;69691;48.172;17.070;2023-07-13T06:50:47;6.18;;;4.35;;
14876;SDS011;69691;48.172;17.070;2023-07-13T06:53:14;8.52;;;4.57;;
14876;SDS011;69691;48.172;17.070;2023-07-13T06:55:43;6.15;;;4.10;;
14876;SDS011;69691;48.172;17.070;2023-07-13T06:58:10;6.50;;;3.95;;
14876;SDS011;69691;48.172;17.070;2023-07-13T07:00:36;6.35;;;4.78;;
14876;SDS011;69691;48.172;17.070;2023-07-13T07:03:01;5.80;;;4.00;;
14876;SDS011;69691;48.172;17.070;2023-07-13T07:05:27;5.30;;;3.92;;
14876;SDS011;69691;48.172;17.070;2023-07-13T07:07:54;7.50;;;4.20;;
14876;SDS011;69691;48.172;17.070;2023-07-13T07:10:21;6.10;;;4.32;;
14876;SDS011;69691;48.172;17.070;2023-07-13T07:12:47;8.38;;;5.15;;
14876;SDS011;69691;48.172;17.070;2023-07-13T07:15:14;8.65;;;4.90;;
14876;SDS011;69691;48.172;17.070;2023-07-13T07:17:40;11.65;;;4.57;;
14876;SDS011;69691;48.172;17.070;2023-07-13T07:20:06;8.32;;;4.35;;
14876;SDS011;69691;48.172;17.070;2023-07-13T07:22:32;6.30;;;4.28;;
14876;SDS011;69691;48.172;17.070;2023-07-13T07:24:58;5.43;;;4.25;;
14876;SDS011;69691;48.172;17.070;2023-07-13T07:27:24;7.10;;;4.22;;
14876;SDS011;69691;48.172;17.070;2023-07-13T07:29:51;11.48;;;4.20;;
14876;SDS011;69691;48.172;17.070;2023-07-13T07:32:17;7.20;;;4.38;;
14876;SDS011;69691;48.172;17.070;2023-07-13T07:34:44;8.93;;;4.38;;
14876;SDS011;69691;48.172;17.070;2023-07-13T07:37:11;8.00;;;4.72;;
14876;SDS011;69691;48.172;17.070;2023-07-13T07:39:39;7.70;;;4.32;;
14876;SDS011;69691;48.172;17.070;2023-07-13T07:42:05;4.55;;;3.90;;
14876;SDS011;69691;48.172;17.070;2023-07-13T07:44:32;4.78;;;4.38;;
14876;SDS011;69691;48.172;17.070;2023-07-13T07:46:58;7.28;;;4.55;;
14876;SDS011;69691;48.172;17.070;2023-07-13T07:49:24;6.38;;;3.92;;
14876;SDS011;69691;48.172;17.070;2023-07-13T07:51:50;5.25;;;4.03;;
14876;SDS011;69691;48.172;17.070;2023-07-13T07:54:16;7.20;;;3.60;;
14876;SDS011;69691;48.172;17.070;2023-07-13T07:56:42;4.05;;;3.50;;
14876;SDS011;69691;48.172;17.070;2023-07-13T07:59:08;6.55;;;4.10;;
14876;SDS011;69691;48.172;17.070;2023-07-13T08:01:34;3.85;;;3.40;;
14876;SDS011;69691;48.172;17.070;2023-07-13T08:04:01;4.05;;;3.40;;
14876;SDS011;69691;48.172;17.070;2023-07-13T08:06:27;5.80;;;3.72;;
14876;SDS011;69691;48.172;17.070;2023-07-13T08:08:54;6.03;;;3.78;;
14876;SDS011;69691;48.172;17.070;2023-07-13T08:11:20;8.00;;;3.88;;
14876;SDS011;69691;48.172;17.070;2023-07-13T08:13:47;4.88;;;3.40;;
14876;SDS011;69691;48.172;17.070;2023-07-13T08:16:14;3.83;;;3.53;;
14876;SDS011;69691;48.172;17.070;2023-07-13T08:18:40;6.57;;;3.55;;
14876;SDS011;69691;48.172;17.070;2023-07-13T08:21:07;4.07;;;3.50;;
14876;SDS011;69691;48.172;17.070;2023-07-13T08:23:34;5.85;;;3.75;;
14876;SDS011;69691;48.172;17.070;2023-07-13T08:26:01;4.88;;;3.60;;
14876;SDS011;69691;48.172;17.070;2023-07-13T08:28:28;3.67;;;3.38;;
14876;SDS011;69691;48.172;17.070;2023-07-13T08:30:54;4.03;;;3.25;;
14876;SDS011;69691;48.172;17.070;2023-07-13T08:33:20;8.43;;;4.20;;
14876;SDS011;69691;48.172;17.070;2023-07-13T08:35:49;8.48;;;4.55;;
14876;SDS011;69691;48.172;17.070;2023-07-13T08:38:16;7.22;;;4.28;;
14876;SDS011;69691;48.172;17.070;2023-07-13T08:40:42;5.63;;;4.25;;
14876;SDS011;69691;48.172;17.070;2023-07-13T08:43:20;5.90;;;3.90;;
14876;SDS011;69691;48.172;17.070;2023-07-13T08:45:53;5.70;;;3.30;;
14876;SDS011;69691;48.172;17.070;2023-07-13T08:48:53;4.03;;;3.53;;
14876;SDS011;69691;48.172;17.070;2023-07-13T08:51:35;5.35;;;3.90;;
14876;SDS011;69691;48.172;17.070;2023-07-13T08:54:27;6.55;;;3.20;;
14876;SDS011;69691;48.172;17.070;2023-07-13T08:57:02;8.32;;;3.95;;
14876;SDS011;69691;48.172;17.070;2023-07-13T08:59:37;3.90;;;3.42;;
14876;SDS011;69691;48.172;17.070;2023-07-13T09:04:57;5.80;;;3.67;;
14876;SDS011;69691;48.172;17.070;2023-07-13T09:08:01;5.55;;;3.25;;
14876;SDS011;69691;48.172;17.070;2023-07-13T09:10:46;4.10;;;3.70;;
14876;SDS011;69691;48.172;17.070;2023-07-13T09:15:53;10.45;;;3.70;;
14876;SDS011;69691;48.172;17.070;2023-07-13T09:18:26;3.50;;;3.20;;
14876;SDS011;69691;48.172;17.070;2023-07-13T09:21:10;3.83;;;3.40;;
14876;SDS011;69691;48.172;17.070;2023-07-13T09:23:43;5.70;;;3.10;;
14876;SDS011;69691;48.172;17.070;2023-07-13T09:26:14;5.50;;;3.25;;
14876;SDS011;69691;48.172;17.070;2023-07-13T09:28:51;6.05;;;3.22;;
14876;SDS011;69691;48.172;17.070;2023-07-13T09:31:26;6.22;;;3.17;;
14876;SDS011;69691;48.172;17.070;2023-07-13T09:34:02;4.90;;;2.95;;
14876;SDS011;69691;48.172;17.070;2023-07-13T09:36:35;4.10;;;3.17;;
14876;SDS011;69691;48.172;17.070;2023-07-13T09:41:41;4.18;;;3.28;;
14876;SDS011;69691;48.172;17.070;2023-07-13T09:44:34;6.78;;;3.38;;
14876;SDS011;69691;48.172;17.070;2023-07-13T09:47:17;6.07;;;3.38;;
14876;SDS011;69691;48.172;17.070;2023-07-13T09:49:56;3.97;;;3.50;;
14876;SDS011;69691;48.172;17.070;2023-07-13T09:52:25;4.05;;;3.67;;
14876;SDS011;69691;48.172;17.070;2023-07-13T09:54:54;4.70;;;3.42;;
14876;SDS011;69691;48.172;17.070;2023-07-13T09:57:24;4.63;;;3.42;;
14876;SDS011;69691;48.172;17.070;2023-07-13T09:59:53;4.40;;;3.40;;
14876;SDS011;69691;48.172;17.070;2023-07-13T10:02:26;5.60;;;3.30;;
14876;SDS011;69691;48.172;17.070;2023-07-13T10:05:04;5.25;;;4.07;;
14876;SDS011;69691;48.172;17.070;2023-07-13T10:07:39;4.90;;;3.67;;
14876;SDS011;69691;48.172;17.070;2023-07-13T10:10:19;3.63;;;3.33;;
14876;SDS011;69691;48.172;17.070;2023-07-13T10:12:48;4.53;;;3.65;;
14876;SDS011;69691;48.172;17.070;2023-07-13T10:15:17;5.32;;;3.70;;
14876;SDS011;69691;48.172;17.070;2023-07-13T10:17:47;3.33;;;3.03;;
14876;SDS011;69691;48.172;17.070;2023-07-13T10:20:15;4.38;;;3.53;;
14876;SDS011;69691;48.172;17.070;2023-07-13T10:25:23;3.72;;;3.42;;
14876;SDS011;69691;48.172;17.070;2023-07-13T10:30:50;5.47;;;3.63;;
14876;SDS011;69691;48.172;17.070;2023-07-13T10:33:19;8.50;;;3.47;;
14876;SDS011;69691;48.172;17.070;2023-07-13T10:35:46;10.43;;;4.13;;
14876;SDS011;69691;48.172;17.070;2023-07-13T10:38:18;5.82;;;3.83;;
14876;SDS011;69691;48.172;17.070;2023-07-13T10:41:06;4.07;;;3.70;;
14876;SDS011;69691;48.172;17.070;2023-07-13T10:43:45;4.22;;;3.83;;
14876;SDS011;69691;48.172;17.070;2023-07-13T10:46:17;3.92;;;3.33;;
14876;SDS011;69691;48.172;17.070;2023-07-13T10:48:46;5.45;;;3.80;;
14876;SDS011;69691;48.172;17.070;2023-07-13T10:51:17;4.55;;;3.80;;
14876;SDS011;69691;48.172;17.070;2023-07-13T10:53:46;6.03;;;3.88;;
14876;SDS011;69691;48.172;17.070;2023-07-13T10:56:19;7.30;;;4.05;;
14876;SDS011;69691;48.172;17.070;2023-07-13T11:01:46;5.75;;;3.60;;
14876;SDS011;69691;48.172;17.070;2023-07-13T11:04:42;6.28;;;4.28;;
14876;SDS011;69691;48.172;17.070;2023-07-13T11:07:20;4.72;;;3.97;;
14876;SDS011;69691;48.172;17.070;2023-07-13T11:09:55;5.53;;;3.80;;
14876;SDS011;69691;48.172;17.070;2023-07-13T11:12:48;4.82;;;4.38;;
14876;SDS011;69691;48.172;17.070;2023-07-13T11:15:27;7.53;;;4.13;;
14876;SDS011;69691;48.172;17.070;2023-07-13T11:18:03;5.03;;;4.20;;
14876;SDS011;69691;48.172;17.070;2023-07-13T11:20:31;5.03;;;4.35;;
14876;SDS011;69691;48.172;17.070;2023-07-13T11:23:08;6.65;;;4.00;;
14876;SDS011;69691;48.172;17.070;2023-07-13T11:25:37;7.95;;;4.40;;
14876;SDS011;69691;48.172;17.070;2023-07-13T11:30:39;7.15;;;4.07;;
14876;SDS011;69691;48.172;17.070;2023-07-13T11:33:19;5.65;;;3.92;;
14876;SDS011;69691;48.172;17.070;2023-07-13T11:35:53;11.27;;;4.28;;
14876;SDS011;69691;48.172;17.070;2023-07-13T11:38:43;10.45;;;4.50;;
14876;SDS011;69691;48.172;17.070;2023-07-13T11:43:54;6.15;;;4.25;;
14876;SDS011;69691;48.172;17.070;2023-07-13T11:46:31;4.40;;;4.03;;
14876;SDS011;69691;48.172;17.070;2023-07-13T11:48:56;4.80;;;4.28;;
14876;SDS011;69691;48.172;17.070;2023-07-13T11:51:23;5.20;;;4.70;;
14876;SDS011;69691;48.172;17.070;2023-07-13T11:53:56;6.10;;;4.28;;
14876;SDS011;69691;48.172;17.070;2023-07-13T11:56:29;7.15;;;4.57;;
14876;SDS011;69691;48.172;17.070;2023-07-13T11:58:57;8.65;;;4.32;;
14876;SDS011;69691;48.172;17.070;2023-07-13T12:01:30;7.20;;;4.30;;
14876;SDS011;69691;48.172;17.070;2023-07-13T12:04:01;4.88;;;4.05;;
14876;SDS011;69691;48.172;17.070;2023-07-13T12:06:30;5.55;;;4.38;;
14876;SDS011;69691;48.172;17.070;2023-07-13T12:09:12;6.13;;;4.20;;
14876;SDS011;69691;48.172;17.070;2023-07-13T12:11:42;4.63;;;3.50;;
14876;SDS011;69691;48.172;17.070;2023-07-13T12:14:15;8.38;;;4.25;;
14876;SDS011;69691;48.172;17.070;2023-07-13T12:16:42;5.93;;;4.20;;
14876;SDS011;69691;48.172;17.070;2023-07-13T12:19:18;4.95;;;4.38;;
14876;SDS011;69691;48.172;17.070;2023-07-13T12:21:50;7.15;;;4.90;;
14876;SDS011;69691;48.172;17.070;2023-07-13T12:24:20;5.53;;;4.50;;
14876;SDS011;69691;48.172;17.070;2023-07-13T12:27:06;4.22;;;3.83;;
14876;SDS011;69691;48.172;17.070;2023-07-13T12:29:49;6.57;;;4.57;;
14876;SDS011;69691;48.172;17.070;2023-07-13T12:32:30;5.65;;;3.95;;
14876;SDS011;69691;48.172;17.070;2023-07-13T12:35:13;7.85;;;4.28;;
14876;SDS011;69691;48.172;17.070;2023-07-13T12:37:42;6.30;;;4.15;;
14876;SDS011;69691;48.172;17.070;2023-07-13T12:40:13;5.88;;;4.43;;
14876;SDS011;69691;48.172;17.070;2023-07-13T12:42:49;8.85;;;4.40;;
14876;SDS011;69691;48.172;17.070;2023-07-13T12:45:22;8.85;;;4.80;;
14876;SDS011;69691;48.172;17.070;2023-07-13T12:47:58;7.55;;;4.20;;
14876;SDS011;69691;48.172;17.070;2023-07-13T12:50:46;6.57;;;5.20;;
14876;SDS011;69691;48.172;17.070;2023-07-13T12:53:16;5.00;;;3.72;;
14876;SDS011;69691;48.172;17.070;2023-07-13T12:55:57;8.43;;;4.68;;
14876;SDS011;69691;48.172;17.070;2023-07-13T12:58:27;6.22;;;4.20;;
14876;SDS011;69691;48.172;17.070;2023-07-13T13:00:58;7.05;;;3.78;;
14876;SDS011;69691;48.172;17.070;2023-07-13T13:06:24;6.40;;;3.83;;
14876;SDS011;69691;48.172;17.070;2023-07-13T13:08:51;8.60;;;4.28;;
14876;SDS011;69691;48.172;17.070;2023-07-13T13:11:21;8.65;;;4.20;;
14876;SDS011;69691;48.172;17.070;2023-07-13T13:13:49;5.13;;;4.18;;
14876;SDS011;69691;48.172;17.070;2023-07-13T13:16:23;5.13;;;3.83;;
14876;SDS011;69691;48.172;17.070;2023-07-13T13:18:57;8.93;;;3.90;;
14876;SDS011;69691;48.172;17.070;2023-07-13T13:21:30;6.95;;;3.75;;
14876;SDS011;69691;48.172;17.070;2023-07-13T13:23:57;4.70;;;3.45;;
14876;SDS011;69691;48.172;17.070;2023-07-13T13:26:24;11.80;;;4.10;;
14876;SDS011;69691;48.172;17.070;2023-07-13T13:28:51;5.70;;;3.67;;
14876;SDS011;69691;48.172;17.070;2023-07-13T13:31:16;6.38;;;3.55;;
14876;SDS011;69691;48.172;17.070;2023-07-13T13:33:43;4.82;;;4.22;;
14876;SDS011;69691;48.172;17.070;2023-07-13T13:36:20;11.30;;;3.90;;
14876;SDS011;69691;48.172;17.070;2023-07-13T13:38:48;4.20;;;3.60;;
14876;SDS011;69691;48.172;17.070;2023-07-13T13:41:15;10.25;;;4.38;;
14876;SDS011;69691;48.172;17.070;2023-07-13T13:43:42;6.55;;;4.10;;
14876;SDS011;69691;48.172;17.070;2023-07-13T13:46:17;7.50;;;3.90;;
14876;SDS011;69691;48.172;17.070;2023-07-13T13:48:47;4.63;;;4.22;;
14876;SDS011;69691;48.172;17.070;2023-07-13T13:51:18;8.88;;;4.13;;
14876;SDS011;69691;48.172;17.070;2023-07-13T13:53:47;8.43;;;3.92;;
14876;SDS011;69691;48.172;17.070;2023-07-13T13:56:13;6.85;;;4.00;;
14876;SDS011;69691;48.172;17.070;2023-07-13T13:58:40;9.98;;;4.45;;
14876;SDS011;69691;48.172;17.070;2023-07-13T14:01:13;6.30;;;4.03;;
14876;SDS011;69691;48.172;17.070;2023-07-13T14:03:44;6.35;;;3.88;;
14876;SDS011;69691;48.172;17.070;2023-07-13T14:06:14;4.13;;;3.72;;
14876;SDS011;69691;48.172;17.070;2023-07-13T14:08:41;7.35;;;4.57;;
14876;SDS011;69691;48.172;17.070;2023-07-13T14:11:12;9.63;;;4.30;;
14876;SDS011;69691;48.172;17.070;2023-07-13T14:13:42;9.55;;;4.15;;
14876;SDS011;69691;48.172;17.070;2023-07-13T14:16:15;6.25;;;4.00;;
14876;SDS011;69691;48.172;17.070;2023-07-13T14:18:44;5.72;;;4.40;;
14876;SDS011;69691;48.172;17.070;2023-07-13T14:21:12;4.70;;;3.65;;
14876;SDS011;69691;48.172;17.070;2023-07-13T14:23:44;9.15;;;3.90;;
14876;SDS011;69691;48.172;17.070;2023-07-13T14:26:12;5.15;;;4.03;;
14876;SDS011;69691;48.172;17.070;2023-07-13T14:28:47;4.35;;;3.92;;
14876;SDS011;69691;48.172;17.070;2023-07-13T14:31:16;3.70;;;3.35;;
14876;SDS011;69691;48.172;17.070;2023-07-13T14:33:43;10.00;;;4.25;;
14876;SDS011;69691;48.172;17.070;2023-07-13T14:36:52;6.25;;;4.68;;
14876;SDS011;69691;48.172;17.070;2023-07-13T14:39:25;4.97;;;4.35;;
14876;SDS011;69691;48.172;17.070;2023-07-13T14:41:52;8.60;;;4.32;;
14876;SDS011;69691;48.172;17.070;2023-07-13T14:44:21;6.70;;;4.13;;
14876;SDS011;69691;48.172;17.070;2023-07-13T14:46:54;9.25;;;4.40;;
14876;SDS011;69691;48.172;17.070;2023-07-13T14:51:59;6.05;;;3.75;;
14876;SDS011;69691;48.172;17.070;2023-07-13T14:54:30;10.60;;;4.40;;
14876;SDS011;69691;48.172;17.070;2023-07-13T14:56:56;7.05;;;4.03;;
14876;SDS011;69691;48.172;17.070;2023-07-13T14:59:22;4.38;;;3.42;;
14876;SDS011;69691;48.172;17.070;2023-07-13T15:01:49;4.43;;;4.03;;
14876;SDS011;69691;48.172;17.070;2023-07-13T15:04:16;5.75;;;4.20;;
14876;SDS011;69691;48.172;17.070;2023-07-13T15:06:54;12.82;;;4.70;;
14876;SDS011;69691;48.172;17.070;2023-07-13T15:09:27;5.68;;;4.22;;
14876;SDS011;69691;48.172;17.070;2023-07-13T15:11:55;4.53;;;4.05;;
14876;SDS011;69691;48.172;17.070;2023-07-13T15:14:21;11.23;;;4.03;;
14876;SDS011;69691;48.172;17.070;2023-07-13T15:16:49;6.45;;;3.90;;